DRGN04 YPDN-YAMB
Flight info
| Callsign | DRGN04 |
|---|---|
| Flight time | 3h 24m |
| Altitude | 35000 |
| Route | DN Y25 OPEKO A464 UNVAT DCT SOOTY |
| Aircraft | A332/H-SADE1E2E3GHIJ3J5M1P2RWXY/LB2D1 |
Departure
| Time | 2026-04-12 05:47 |
|---|---|
| Airport | Darwin International Airport / RAAF Darwin (YPDN) |
Arrival
| Time | 2026-04-12 09:11 |
|---|---|
| Airport | RAAF Base Amberley (YAMB) |
| Time | Latitude | Longitude | Altitude | Speed | Heading |
|---|---|---|---|---|---|
| 2026-04-12 05:26 | -12.41910 | 130.86880 | 108 ft | 0 kts | 348° |
| 2026-04-12 05:35 | -12.41900 | 130.86878 | 107 ft | 4 kts | 348° |
| 2026-04-12 05:36 | -12.41872 | 130.86886 | 108 ft | 6 kts | 17° |
| 2026-04-12 05:36 | -12.41836 | 130.86917 | 108 ft | 8 kts | 43° |
| 2026-04-12 05:36 | -12.41774 | 130.86950 | 107 ft | 11 kts | 15° |
| 2026-04-12 05:36 | -12.41682 | 130.86950 | 108 ft | 15 kts | 357° |
| 2026-04-12 05:37 | -12.41562 | 130.86944 | 108 ft | 19 kts | 357° |
| 2026-04-12 05:37 | -12.41429 | 130.86939 | 110 ft | 18 kts | 358° |
| 2026-04-12 05:37 | -12.41348 | 130.86880 | 110 ft | 14 kts | 303° |
| 2026-04-12 05:37 | -12.41306 | 130.86770 | 109 ft | 19 kts | 289° |
| 2026-04-12 05:38 | -12.41259 | 130.86631 | 109 ft | 22 kts | 289° |
| 2026-04-12 05:38 | -12.41232 | 130.86558 | 110 ft | 10 kts | 292° |
| 2026-04-12 05:38 | -12.41226 | 130.86545 | 109 ft | 3 kts | 295° |
| 2026-04-12 05:38 | -12.41208 | 130.86515 | 109 ft | 7 kts | 305° |
| 2026-04-12 05:39 | -12.41157 | 130.86481 | 111 ft | 10 kts | 340° |
| 2026-04-12 05:39 | -12.41147 | 130.86480 | 109 ft | 0 kts | 352° |
| 2026-04-12 05:41 | -12.41145 | 130.86480 | 110 ft | 1 kts | 352° |
| 2026-04-12 05:41 | -12.41126 | 130.86479 | 92 ft | 4 kts | 357° |
| 2026-04-12 05:41 | -12.41088 | 130.86485 | 110 ft | 7 kts | 13° |
| 2026-04-12 05:42 | -12.41064 | 130.86493 | 110 ft | 0 kts | 18° |
| 2026-04-12 05:45 | -12.41058 | 130.86495 | 110 ft | 4 kts | 18° |
| 2026-04-12 05:45 | -12.41003 | 130.86518 | 112 ft | 12 kts | 28° |
| 2026-04-12 05:46 | -12.40957 | 130.86596 | 110 ft | 14 kts | 91° |
| 2026-04-12 05:46 | -12.40969 | 130.86632 | 108 ft | 0 kts | 110° |
| 2026-04-12 05:46 | -12.41043 | 130.86831 | 110 ft | 70 kts | 111° |
| 2026-04-12 05:46 | -12.41279 | 130.87545 | 111 ft | 139 kts | 109° |
| 2026-04-12 05:47 | -12.41607 | 130.88554 | 569 ft | 150 kts | 108° |
| 2026-04-12 05:47 | -12.41899 | 130.89568 | 1182 ft | 146 kts | 108° |
| 2026-04-12 05:47 | -12.42231 | 130.90611 | 1528 ft | 166 kts | 108° |
| 2026-04-12 05:47 | -12.42609 | 130.91716 | 2067 ft | 168 kts | 110° |
| 2026-04-12 05:48 | -12.43017 | 130.92915 | 2382 ft | 183 kts | 109° |
| 2026-04-12 05:48 | -12.43435 | 130.94143 | 2774 ft | 186 kts | 109° |
| 2026-04-12 05:48 | -12.43856 | 130.95384 | 3114 ft | 185 kts | 110° |
| 2026-04-12 05:48 | -12.44282 | 130.96639 | 3408 ft | 187 kts | 110° |
| 2026-04-12 05:49 | -12.44711 | 130.97900 | 3729 ft | 188 kts | 110° |
| 2026-04-12 05:49 | -12.45142 | 130.99159 | 4047 ft | 188 kts | 110° |
| 2026-04-12 05:49 | -12.45573 | 131.00421 | 4390 ft | 188 kts | 110° |
| 2026-04-12 05:49 | -12.46004 | 131.01688 | 4710 ft | 189 kts | 110° |
| 2026-04-12 05:50 | -12.46439 | 131.02969 | 5012 ft | 191 kts | 110° |
| 2026-04-12 05:50 | -12.46864 | 131.04247 | 5353 ft | 190 kts | 107° |
| 2026-04-12 05:50 | -12.47107 | 131.05578 | 5687 ft | 190 kts | 100° |
| 2026-04-12 05:50 | -12.47307 | 131.06915 | 5989 ft | 190 kts | 101° |
| 2026-04-12 05:51 | -12.47509 | 131.08237 | 6291 ft | 191 kts | 101° |
| 2026-04-12 05:51 | -12.47722 | 131.09595 | 6574 ft | 191 kts | 101° |
| 2026-04-12 05:51 | -12.47934 | 131.10946 | 6821 ft | 193 kts | 101° |
| 2026-04-12 05:51 | -12.48144 | 131.12286 | 7049 ft | 195 kts | 101° |
| 2026-04-12 05:52 | -12.48362 | 131.13659 | 7295 ft | 195 kts | 101° |
| 2026-04-12 05:52 | -12.48579 | 131.15027 | 7542 ft | 195 kts | 100° |
| 2026-04-12 05:52 | -12.48796 | 131.16406 | 7781 ft | 196 kts | 100° |
| 2026-04-12 05:52 | -12.49013 | 131.17788 | 8004 ft | 198 kts | 100° |
| 2026-04-12 05:53 | -12.49233 | 131.19186 | 8230 ft | 199 kts | 100° |
| 2026-04-12 05:53 | -12.49452 | 131.20588 | 8475 ft | 200 kts | 100° |
| 2026-04-12 05:53 | -12.49674 | 131.22003 | 8716 ft | 201 kts | 100° |
| 2026-04-12 05:53 | -12.49896 | 131.23413 | 8963 ft | 201 kts | 100° |
| 2026-04-12 05:54 | -12.50120 | 131.24830 | 9188 ft | 203 kts | 100° |
| 2026-04-12 05:54 | -12.50344 | 131.26257 | 9423 ft | 203 kts | 100° |
| 2026-04-12 05:54 | -12.50569 | 131.27687 | 9635 ft | 204 kts | 100° |
| 2026-04-12 05:54 | -12.50794 | 131.29120 | 9827 ft | 204 kts | 100° |
| 2026-04-12 05:55 | -12.51024 | 131.30595 | 9917 ft | 221 kts | 100° |
| 2026-04-12 05:55 | -12.51281 | 131.32231 | 10040 ft | 243 kts | 100° |
| 2026-04-12 05:55 | -12.51558 | 131.34005 | 10195 ft | 263 kts | 100° |
| 2026-04-12 05:55 | -12.51858 | 131.35925 | 10352 ft | 283 kts | 100° |
| 2026-04-12 05:56 | -12.52069 | 131.37271 | 10468 ft | 296 kts | 100° |
| 2026-04-12 05:56 | -12.52405 | 131.39415 | 10614 ft | 314 kts | 100° |
| 2026-04-12 05:56 | -12.52759 | 131.41685 | 10762 ft | 332 kts | 100° |
| 2026-04-12 05:56 | -12.53258 | 131.44877 | 10951 ft | 352 kts | 100° |
| 2026-04-12 05:57 | -12.53654 | 131.47407 | 11082 ft | 367 kts | 100° |
| 2026-04-12 05:57 | -12.53928 | 131.49167 | 11164 ft | 375 kts | 100° |
| 2026-04-12 05:57 | -12.54344 | 131.51838 | 11470 ft | 382 kts | 100° |
| 2026-04-12 05:57 | -12.54761 | 131.54527 | 11913 ft | 384 kts | 100° |
| 2026-04-12 05:58 | -12.55181 | 131.57234 | 12306 ft | 388 kts | 100° |
| 2026-04-12 05:58 | -12.55602 | 131.59940 | 12696 ft | 391 kts | 100° |
| 2026-04-12 05:58 | -12.56175 | 131.63632 | 13261 ft | 395 kts | 100° |
| 2026-04-12 05:58 | -12.56460 | 131.65474 | 13537 ft | 397 kts | 100° |
| 2026-04-12 05:59 | -12.56896 | 131.68277 | 13887 ft | 400 kts | 100° |
| 2026-04-12 05:59 | -12.57333 | 131.71095 | 14231 ft | 403 kts | 100° |
| 2026-04-12 05:59 | -12.57790 | 131.73939 | 14580 ft | 405 kts | 102° |
| 2026-04-12 05:59 | -12.58499 | 131.76737 | 14929 ft | 407 kts | 107° |
| 2026-04-12 06:00 | -12.59307 | 131.79530 | 15065 ft | 410 kts | 107° |
| 2026-04-12 06:00 | -12.60104 | 131.82325 | 15025 ft | 408 kts | 107° |
| 2026-04-12 06:00 | -12.60894 | 131.85109 | 15022 ft | 408 kts | 107° |
| 2026-04-12 06:00 | -12.61686 | 131.87907 | 15022 ft | 408 kts | 107° |
| 2026-04-12 06:01 | -12.62476 | 131.90696 | 15020 ft | 408 kts | 107° |
| 2026-04-12 06:01 | -12.63265 | 131.93484 | 15022 ft | 409 kts | 107° |
| 2026-04-12 06:01 | -12.64057 | 131.96286 | 15021 ft | 408 kts | 107° |
| 2026-04-12 06:01 | -12.64846 | 131.99071 | 15021 ft | 408 kts | 107° |
| 2026-04-12 06:02 | -12.65638 | 132.01872 | 15022 ft | 409 kts | 107° |
| 2026-04-12 06:02 | -12.66427 | 132.04664 | 15022 ft | 408 kts | 107° |
| 2026-04-12 06:02 | -12.67215 | 132.07456 | 15022 ft | 409 kts | 107° |
| 2026-04-12 06:02 | -12.68004 | 132.10251 | 15018 ft | 408 kts | 107° |
| 2026-04-12 06:03 | -12.68792 | 132.13045 | 15016 ft | 408 kts | 107° |
| 2026-04-12 06:03 | -12.69572 | 132.15808 | 15019 ft | 408 kts | 107° |
| 2026-04-12 06:03 | -12.70609 | 132.18504 | 15019 ft | 408 kts | 119° |
| 2026-04-12 06:03 | -12.72257 | 132.20846 | 15020 ft | 408 kts | 133° |
| 2026-04-12 06:04 | -12.74441 | 132.22710 | 15022 ft | 408 kts | 147° |
| 2026-04-12 06:04 | -12.77005 | 132.23960 | 15015 ft | 410 kts | 161° |
| 2026-04-12 06:04 | -12.79806 | 132.24597 | 15218 ft | 414 kts | 168° |
| 2026-04-12 06:04 | -12.82645 | 132.25147 | 15627 ft | 415 kts | 168° |
| 2026-04-12 06:05 | -12.85489 | 132.25716 | 15955 ft | 419 kts | 167° |
| 2026-04-12 06:05 | -12.88363 | 132.26297 | 16272 ft | 422 kts | 168° |
| 2026-04-12 06:05 | -12.91266 | 132.26882 | 16576 ft | 426 kts | 168° |
| 2026-04-12 06:05 | -12.94187 | 132.27470 | 16903 ft | 430 kts | 168° |
| 2026-04-12 06:06 | -12.97132 | 132.28063 | 17218 ft | 434 kts | 168° |
| 2026-04-12 06:06 | -13.00101 | 132.28659 | 17536 ft | 437 kts | 168° |
| 2026-04-12 06:06 | -13.03110 | 132.29263 | 17850 ft | 441 kts | 168° |
| 2026-04-12 06:06 | -13.06127 | 132.29869 | 18159 ft | 444 kts | 168° |
| 2026-04-12 06:07 | -13.09135 | 132.30473 | 18474 ft | 446 kts | 168° |
| 2026-04-12 06:07 | -13.12187 | 132.31086 | 18824 ft | 447 kts | 168° |
| 2026-04-12 06:07 | -13.15254 | 132.31703 | 19159 ft | 449 kts | 168° |
| 2026-04-12 06:07 | -13.18329 | 132.32321 | 19485 ft | 451 kts | 168° |
| 2026-04-12 06:08 | -13.21420 | 132.32943 | 19827 ft | 453 kts | 168° |
| 2026-04-12 06:08 | -13.24521 | 132.33567 | 20170 ft | 455 kts | 168° |
| 2026-04-12 06:08 | -13.27634 | 132.34193 | 20507 ft | 457 kts | 168° |
| 2026-04-12 06:08 | -13.30763 | 132.34823 | 20841 ft | 459 kts | 168° |
| 2026-04-12 06:09 | -13.33902 | 132.35456 | 21181 ft | 461 kts | 168° |
| 2026-04-12 06:09 | -13.37060 | 132.36092 | 21525 ft | 463 kts | 168° |
| 2026-04-12 06:09 | -13.40231 | 132.36731 | 21862 ft | 465 kts | 168° |
| 2026-04-12 06:09 | -13.43413 | 132.37372 | 22201 ft | 467 kts | 168° |
| 2026-04-12 06:10 | -13.46575 | 132.38009 | 22520 ft | 469 kts | 168° |
| 2026-04-12 06:10 | -13.49787 | 132.38656 | 22853 ft | 472 kts | 168° |
| 2026-04-12 06:10 | -13.53016 | 132.39307 | 23213 ft | 473 kts | 168° |
| 2026-04-12 06:10 | -13.56261 | 132.39962 | 23523 ft | 476 kts | 168° |
| 2026-04-12 06:11 | -13.59521 | 132.40620 | 23769 ft | 478 kts | 168° |
| 2026-04-12 06:11 | -13.62798 | 132.41282 | 24035 ft | 481 kts | 168° |
| 2026-04-12 06:11 | -13.66088 | 132.41946 | 24274 ft | 484 kts | 168° |
| 2026-04-12 06:11 | -13.69397 | 132.42614 | 24534 ft | 486 kts | 168° |
| 2026-04-12 06:12 | -13.72723 | 132.43286 | 24781 ft | 489 kts | 168° |
| 2026-04-12 06:12 | -13.76057 | 132.43960 | 25029 ft | 491 kts | 168° |
| 2026-04-12 06:12 | -13.79428 | 132.44641 | 25280 ft | 493 kts | 168° |
| 2026-04-12 06:12 | -13.82804 | 132.45323 | 25531 ft | 496 kts | 168° |
| 2026-04-12 06:13 | -13.86199 | 132.46010 | 25773 ft | 498 kts | 168° |
| 2026-04-12 06:13 | -13.89607 | 132.46700 | 26014 ft | 500 kts | 168° |
| 2026-04-12 06:13 | -13.93037 | 132.47394 | 26231 ft | 503 kts | 168° |
| 2026-04-12 06:13 | -13.96429 | 132.48081 | 26423 ft | 504 kts | 168° |
| 2026-04-12 06:14 | -13.99872 | 132.48779 | 26619 ft | 506 kts | 168° |
| 2026-04-12 06:14 | -14.03330 | 132.49479 | 26748 ft | 508 kts | 168° |
| 2026-04-12 06:14 | -14.06808 | 132.50184 | 26907 ft | 509 kts | 168° |
| 2026-04-12 06:14 | -14.10288 | 132.50889 | 27021 ft | 511 kts | 168° |
| 2026-04-12 06:15 | -14.13782 | 132.51598 | 27134 ft | 512 kts | 168° |
| 2026-04-12 06:15 | -14.17282 | 132.52307 | 27235 ft | 512 kts | 168° |
| 2026-04-12 06:15 | -14.20778 | 132.53016 | 27325 ft | 513 kts | 168° |
| 2026-04-12 06:15 | -14.24288 | 132.53729 | 27402 ft | 514 kts | 168° |
| 2026-04-12 06:16 | -14.27803 | 132.54443 | 27465 ft | 515 kts | 168° |
| 2026-04-12 06:16 | -14.31317 | 132.55156 | 27519 ft | 515 kts | 168° |
| 2026-04-12 06:16 | -14.34841 | 132.55872 | 27574 ft | 516 kts | 168° |
| 2026-04-12 06:16 | -14.38364 | 132.56588 | 27622 ft | 517 kts | 168° |
| 2026-04-12 06:17 | -14.41899 | 132.57307 | 27668 ft | 517 kts | 168° |
| 2026-04-12 06:17 | -14.45438 | 132.58027 | 27703 ft | 518 kts | 168° |
| 2026-04-12 06:17 | -14.48965 | 132.58744 | 27749 ft | 518 kts | 168° |
| 2026-04-12 06:17 | -14.52507 | 132.59465 | 27777 ft | 518 kts | 168° |
| 2026-04-12 06:18 | -14.56042 | 132.60184 | 27809 ft | 518 kts | 168° |
| 2026-04-12 06:18 | -14.59576 | 132.60904 | 27840 ft | 518 kts | 168° |
| 2026-04-12 06:18 | -14.63117 | 132.61626 | 27861 ft | 518 kts | 168° |
| 2026-04-12 06:18 | -14.66629 | 132.62477 | 27887 ft | 518 kts | 161° |
| 2026-04-12 06:19 | -14.69932 | 132.63925 | 27925 ft | 518 kts | 150° |
| 2026-04-12 06:19 | -14.72923 | 132.65982 | 27955 ft | 516 kts | 140° |
| 2026-04-12 06:19 | -14.75488 | 132.68575 | 27985 ft | 515 kts | 129° |
| 2026-04-12 06:19 | -14.77649 | 132.71508 | 28027 ft | 514 kts | 124° |
| 2026-04-12 06:20 | -14.81783 | 132.77539 | 28102 ft | 514 kts | 124° |
| 2026-04-12 06:20 | -14.83857 | 132.80472 | 28356 ft | 510 kts | 125° |
| 2026-04-12 06:20 | -14.85969 | 132.83399 | 28861 ft | 503 kts | 126° |
| 2026-04-12 06:21 | -14.88056 | 132.86259 | 29503 ft | 496 kts | 126° |
| 2026-04-12 06:21 | -14.90127 | 132.89087 | 30131 ft | 490 kts | 126° |
| 2026-04-12 06:21 | -14.92172 | 132.91877 | 30703 ft | 485 kts | 126° |
| 2026-04-12 06:21 | -14.94198 | 132.94643 | 31279 ft | 480 kts | 126° |
| 2026-04-12 06:22 | -14.96199 | 132.97376 | 31868 ft | 475 kts | 125° |
| 2026-04-12 06:22 | -14.98185 | 133.00090 | 32466 ft | 469 kts | 125° |
| 2026-04-12 06:22 | -15.00140 | 133.02762 | 33083 ft | 463 kts | 125° |
| 2026-04-12 06:22 | -15.02074 | 133.05408 | 33711 ft | 457 kts | 125° |
| 2026-04-12 06:23 | -15.03985 | 133.08022 | 34285 ft | 451 kts | 125° |
| 2026-04-12 06:23 | -15.05868 | 133.10599 | 34628 ft | 451 kts | 124° |
| 2026-04-12 06:23 | -15.07767 | 133.13202 | 34742 ft | 456 kts | 124° |
| 2026-04-12 06:23 | -15.09693 | 133.15843 | 34856 ft | 462 kts | 124° |
| 2026-04-12 06:24 | -15.13590 | 133.21185 | 35001 ft | 465 kts | 125° |
| 2026-04-12 06:24 | -15.17480 | 133.26516 | 35008 ft | 463 kts | 124° |
| 2026-04-12 06:25 | -15.21369 | 133.31852 | 35011 ft | 464 kts | 124° |
| 2026-04-12 06:25 | -15.25256 | 133.37190 | 35011 ft | 464 kts | 124° |
| 2026-04-12 06:26 | -15.29140 | 133.42526 | 35010 ft | 464 kts | 124° |
| 2026-04-12 06:26 | -15.33024 | 133.47867 | 35009 ft | 464 kts | 124° |
| 2026-04-12 06:27 | -15.36891 | 133.53182 | 35013 ft | 464 kts | 124° |
| 2026-04-12 06:27 | -15.40771 | 133.58522 | 35009 ft | 465 kts | 124° |
| 2026-04-12 06:28 | -15.44661 | 133.63882 | 35012 ft | 465 kts | 124° |
| 2026-04-12 06:28 | -15.48549 | 133.69244 | 35016 ft | 465 kts | 124° |
| 2026-04-12 06:29 | -15.52437 | 133.74609 | 35024 ft | 465 kts | 124° |
| 2026-04-12 06:29 | -15.56315 | 133.79965 | 35014 ft | 465 kts | 124° |
| 2026-04-12 06:30 | -15.60202 | 133.85338 | 35018 ft | 465 kts | 124° |
| 2026-04-12 06:30 | -15.64059 | 133.90671 | 35020 ft | 465 kts | 124° |
| 2026-04-12 06:31 | -15.67961 | 133.96072 | 35020 ft | 465 kts | 124° |
| 2026-04-12 06:31 | -15.71842 | 134.01447 | 35021 ft | 465 kts | 124° |
| 2026-04-12 06:32 | -15.75692 | 134.06782 | 35022 ft | 465 kts | 124° |
| 2026-04-12 06:32 | -15.79558 | 134.12145 | 35019 ft | 465 kts | 124° |
| 2026-04-12 06:33 | -15.83443 | 134.17537 | 35019 ft | 465 kts | 124° |
| 2026-04-12 06:33 | -15.87314 | 134.22913 | 35019 ft | 465 kts | 124° |
| 2026-04-12 06:34 | -15.91185 | 134.28294 | 35027 ft | 465 kts | 124° |
| 2026-04-12 06:34 | -15.95047 | 134.33665 | 35030 ft | 465 kts | 124° |
| 2026-04-12 06:35 | -16.00849 | 134.41750 | 35023 ft | 465 kts | 124° |
| 2026-04-12 06:36 | -16.04706 | 134.47128 | 35022 ft | 465 kts | 124° |
| 2026-04-12 06:36 | -16.08547 | 134.52497 | 35025 ft | 465 kts | 124° |
| 2026-04-12 06:37 | -16.12405 | 134.57888 | 35028 ft | 465 kts | 124° |
| 2026-04-12 06:37 | -16.16268 | 134.63286 | 35026 ft | 465 kts | 124° |
| 2026-04-12 06:38 | -16.20128 | 134.68685 | 35029 ft | 465 kts | 124° |
| 2026-04-12 06:38 | -16.23991 | 134.74093 | 35030 ft | 465 kts | 124° |
| 2026-04-12 06:39 | -16.27849 | 134.79498 | 35028 ft | 465 kts | 124° |
| 2026-04-12 06:39 | -16.31707 | 134.84909 | 35024 ft | 466 kts | 124° |
| 2026-04-12 06:40 | -16.35568 | 134.90328 | 35025 ft | 466 kts | 124° |
| 2026-04-12 06:40 | -16.39430 | 134.95751 | 35034 ft | 466 kts | 124° |
| 2026-04-12 06:41 | -16.43266 | 135.01143 | 35031 ft | 466 kts | 124° |
| 2026-04-12 06:41 | -16.47126 | 135.06572 | 35031 ft | 467 kts | 124° |
| 2026-04-12 06:42 | -16.50989 | 135.12010 | 35038 ft | 467 kts | 124° |
| 2026-04-12 06:42 | -16.54852 | 135.17453 | 35032 ft | 467 kts | 124° |
| 2026-04-12 06:43 | -16.58722 | 135.22908 | 35035 ft | 468 kts | 124° |
| 2026-04-12 06:43 | -16.62588 | 135.28363 | 35052 ft | 468 kts | 124° |
| 2026-04-12 06:44 | -16.66454 | 135.33822 | 35052 ft | 468 kts | 123° |
| 2026-04-12 06:44 | -16.69689 | 135.38393 | 35048 ft | 468 kts | 123° |
| 2026-04-12 06:45 | -16.73533 | 135.43829 | 35046 ft | 468 kts | 123° |
| 2026-04-12 06:45 | -16.77400 | 135.49301 | 35032 ft | 468 kts | 123° |
| 2026-04-12 06:46 | -16.81261 | 135.54769 | 35033 ft | 468 kts | 123° |
| 2026-04-12 06:46 | -16.85127 | 135.60249 | 35032 ft | 468 kts | 123° |
| 2026-04-12 06:47 | -16.88981 | 135.65715 | 35036 ft | 468 kts | 123° |
| 2026-04-12 06:47 | -16.92850 | 135.71208 | 35031 ft | 468 kts | 123° |
| 2026-04-12 06:48 | -16.96715 | 135.76699 | 35027 ft | 468 kts | 123° |
| 2026-04-12 06:48 | -17.00572 | 135.82183 | 35035 ft | 468 kts | 123° |
| 2026-04-12 06:49 | -17.04407 | 135.87641 | 35039 ft | 469 kts | 123° |
| 2026-04-12 06:49 | -17.08260 | 135.93127 | 35035 ft | 469 kts | 123° |
| 2026-04-12 06:50 | -17.12122 | 135.98631 | 35034 ft | 469 kts | 123° |
| 2026-04-12 06:50 | -17.15975 | 136.04128 | 35041 ft | 469 kts | 123° |
| 2026-04-12 06:51 | -17.19830 | 136.09630 | 35033 ft | 469 kts | 123° |
| 2026-04-12 06:51 | -17.23687 | 136.15140 | 35036 ft | 469 kts | 123° |
| 2026-04-12 06:52 | -17.27540 | 136.20650 | 35033 ft | 470 kts | 123° |
| 2026-04-12 06:52 | -17.31395 | 136.26166 | 35036 ft | 470 kts | 123° |
| 2026-04-12 06:53 | -17.35256 | 136.31695 | 35033 ft | 470 kts | 123° |
| 2026-04-12 06:53 | -17.39121 | 136.37235 | 35038 ft | 471 kts | 123° |
| 2026-04-12 06:54 | -17.42984 | 136.42777 | 35044 ft | 471 kts | 123° |
| 2026-04-12 06:54 | -17.46849 | 136.48326 | 35045 ft | 472 kts | 123° |
| 2026-04-12 06:55 | -17.50692 | 136.53847 | 35054 ft | 472 kts | 123° |
| 2026-04-12 06:55 | -17.54558 | 136.59407 | 35059 ft | 472 kts | 123° |
| 2026-04-12 06:56 | -17.58429 | 136.64978 | 35037 ft | 473 kts | 123° |
| 2026-04-12 06:56 | -17.62297 | 136.70549 | 35039 ft | 473 kts | 123° |
| 2026-04-12 06:57 | -17.66172 | 136.76136 | 35044 ft | 473 kts | 123° |
| 2026-04-12 06:57 | -17.70049 | 136.81729 | 35061 ft | 474 kts | 123° |
| 2026-04-12 06:58 | -17.73927 | 136.87329 | 35060 ft | 474 kts | 123° |
| 2026-04-12 06:58 | -17.77802 | 136.92930 | 35055 ft | 474 kts | 123° |
| 2026-04-12 06:59 | -17.81677 | 136.98534 | 35040 ft | 475 kts | 123° |
| 2026-04-12 06:59 | -17.85553 | 137.04145 | 35054 ft | 475 kts | 123° |
| 2026-04-12 07:00 | -17.91346 | 137.12541 | 35063 ft | 475 kts | 123° |
| 2026-04-12 07:00 | -17.95222 | 137.18164 | 35063 ft | 475 kts | 123° |
| 2026-04-12 07:01 | -17.99098 | 137.23792 | 35056 ft | 476 kts | 123° |
| 2026-04-12 07:01 | -18.02976 | 137.29428 | 35043 ft | 476 kts | 123° |
| 2026-04-12 07:02 | -18.06855 | 137.35070 | 35044 ft | 476 kts | 123° |
| 2026-04-12 07:02 | -18.10735 | 137.40719 | 35066 ft | 476 kts | 123° |
| 2026-04-12 07:03 | -18.14602 | 137.46352 | 35063 ft | 477 kts | 123° |
| 2026-04-12 07:03 | -18.18492 | 137.52025 | 35056 ft | 477 kts | 123° |
| 2026-04-12 07:04 | -18.22347 | 137.57652 | 35051 ft | 478 kts | 123° |
| 2026-04-12 07:04 | -18.26233 | 137.63329 | 35065 ft | 478 kts | 123° |
| 2026-04-12 07:05 | -18.30122 | 137.69015 | 35073 ft | 478 kts | 123° |
| 2026-04-12 07:05 | -18.34007 | 137.74701 | 35074 ft | 478 kts | 123° |
| 2026-04-12 07:06 | -18.37887 | 137.80383 | 35071 ft | 479 kts | 123° |
| 2026-04-12 07:06 | -18.41778 | 137.86088 | 35054 ft | 479 kts | 123° |
| 2026-04-12 07:07 | -18.45660 | 137.91783 | 35052 ft | 479 kts | 123° |
| 2026-04-12 07:07 | -18.49550 | 137.97494 | 35069 ft | 480 kts | 123° |
| 2026-04-12 07:08 | -18.53440 | 138.03208 | 35071 ft | 480 kts | 123° |
| 2026-04-12 07:08 | -18.57324 | 138.08924 | 35073 ft | 480 kts | 123° |
| 2026-04-12 07:09 | -18.61210 | 138.14656 | 35073 ft | 480 kts | 123° |
| 2026-04-12 07:09 | -18.65099 | 138.20390 | 35054 ft | 481 kts | 123° |
| 2026-04-12 07:10 | -18.68989 | 138.26128 | 35056 ft | 481 kts | 123° |
| 2026-04-12 07:10 | -18.72882 | 138.31878 | 35072 ft | 481 kts | 123° |
| 2026-04-12 07:11 | -18.76775 | 138.37632 | 35075 ft | 481 kts | 123° |
| 2026-04-12 07:11 | -18.80644 | 138.43356 | 35056 ft | 482 kts | 123° |
| 2026-04-12 07:12 | -18.84541 | 138.49127 | 35059 ft | 482 kts | 123° |
| 2026-04-12 07:12 | -18.88435 | 138.54899 | 35055 ft | 483 kts | 123° |
| 2026-04-12 07:13 | -18.92328 | 138.60676 | 35075 ft | 483 kts | 123° |
| 2026-04-12 07:13 | -18.96228 | 138.66468 | 35075 ft | 483 kts | 123° |
| 2026-04-12 07:14 | -19.00126 | 138.72263 | 35059 ft | 484 kts | 123° |
| 2026-04-12 07:14 | -19.04017 | 138.78050 | 35054 ft | 484 kts | 123° |
| 2026-04-12 07:15 | -19.07921 | 138.83865 | 35054 ft | 484 kts | 123° |
| 2026-04-12 07:15 | -19.11825 | 138.89684 | 35078 ft | 485 kts | 123° |
| 2026-04-12 07:16 | -19.15700 | 138.95467 | 35080 ft | 485 kts | 123° |
| 2026-04-12 07:16 | -19.19602 | 139.01293 | 35075 ft | 485 kts | 123° |
| 2026-04-12 07:17 | -19.23504 | 139.07127 | 35066 ft | 486 kts | 123° |
| 2026-04-12 07:17 | -19.27403 | 139.12960 | 35065 ft | 486 kts | 123° |
| 2026-04-12 07:18 | -19.31307 | 139.18808 | 35084 ft | 486 kts | 123° |
| 2026-04-12 07:18 | -19.35204 | 139.24649 | 35083 ft | 486 kts | 123° |
| 2026-04-12 07:19 | -19.39069 | 139.30448 | 35071 ft | 486 kts | 123° |
| 2026-04-12 07:19 | -19.42969 | 139.36306 | 35073 ft | 486 kts | 123° |
| 2026-04-12 07:20 | -19.46860 | 139.42155 | 35075 ft | 486 kts | 123° |
| 2026-04-12 07:20 | -19.50750 | 139.48011 | 35086 ft | 486 kts | 123° |
| 2026-04-12 07:21 | -19.54645 | 139.53877 | 35088 ft | 486 kts | 124° |
| 2026-04-12 07:21 | -19.58537 | 139.59745 | 35071 ft | 486 kts | 124° |
| 2026-04-12 07:22 | -19.62422 | 139.65609 | 35073 ft | 486 kts | 124° |
| 2026-04-12 07:22 | -19.66307 | 139.71478 | 35070 ft | 486 kts | 124° |
| 2026-04-12 07:23 | -19.70190 | 139.77350 | 35069 ft | 486 kts | 124° |
| 2026-04-12 07:23 | -19.74069 | 139.83221 | 35070 ft | 486 kts | 124° |
| 2026-04-12 07:24 | -19.77945 | 139.89094 | 35069 ft | 486 kts | 124° |
| 2026-04-12 07:24 | -19.81824 | 139.94977 | 35072 ft | 486 kts | 124° |
| 2026-04-12 07:25 | -19.85705 | 140.00868 | 35071 ft | 486 kts | 124° |
| 2026-04-12 07:25 | -19.89564 | 140.06734 | 35069 ft | 487 kts | 124° |
| 2026-04-12 07:26 | -19.93447 | 140.12640 | 35072 ft | 487 kts | 124° |
| 2026-04-12 07:26 | -19.97322 | 140.18540 | 35076 ft | 487 kts | 124° |
| 2026-04-12 07:27 | -20.01203 | 140.24456 | 35068 ft | 487 kts | 124° |
| 2026-04-12 07:27 | -20.05080 | 140.30370 | 35068 ft | 487 kts | 124° |
| 2026-04-12 07:28 | -20.08935 | 140.36256 | 35071 ft | 488 kts | 124° |
| 2026-04-12 07:28 | -20.12819 | 140.42191 | 35074 ft | 488 kts | 124° |
| 2026-04-12 07:29 | -20.16694 | 140.48126 | 35072 ft | 488 kts | 124° |
| 2026-04-12 07:29 | -20.20575 | 140.54072 | 35078 ft | 489 kts | 124° |
| 2026-04-12 07:30 | -20.24454 | 140.60020 | 35080 ft | 489 kts | 124° |
| 2026-04-12 07:30 | -20.28333 | 140.65975 | 35077 ft | 489 kts | 124° |
| 2026-04-12 07:31 | -20.32189 | 140.71900 | 35076 ft | 490 kts | 124° |
| 2026-04-12 07:31 | -20.36070 | 140.77870 | 35075 ft | 490 kts | 124° |
| 2026-04-12 07:32 | -20.39952 | 140.83847 | 35076 ft | 490 kts | 124° |
| 2026-04-12 07:32 | -20.43832 | 140.89827 | 35077 ft | 491 kts | 124° |
| 2026-04-12 07:33 | -20.47086 | 140.94847 | 35081 ft | 491 kts | 124° |
| 2026-04-12 07:33 | -20.50939 | 141.00798 | 35075 ft | 491 kts | 124° |
| 2026-04-12 07:34 | -20.54820 | 141.06797 | 35075 ft | 491 kts | 124° |
| 2026-04-12 07:34 | -20.58708 | 141.12814 | 35078 ft | 492 kts | 124° |
| 2026-04-12 07:35 | -20.62588 | 141.18825 | 35079 ft | 492 kts | 124° |
| 2026-04-12 07:35 | -20.66471 | 141.24846 | 35082 ft | 492 kts | 123° |
| 2026-04-12 07:36 | -20.70353 | 141.30872 | 35078 ft | 493 kts | 123° |
| 2026-04-12 07:36 | -20.74212 | 141.36869 | 35076 ft | 493 kts | 123° |
| 2026-04-12 07:37 | -20.78098 | 141.42915 | 35077 ft | 493 kts | 123° |
| 2026-04-12 07:37 | -20.81978 | 141.48962 | 35079 ft | 493 kts | 123° |
| 2026-04-12 07:38 | -20.85863 | 141.55017 | 35077 ft | 494 kts | 123° |
| 2026-04-12 07:38 | -20.89747 | 141.61077 | 35076 ft | 494 kts | 123° |
| 2026-04-12 07:39 | -20.93630 | 141.67145 | 35077 ft | 494 kts | 123° |
| 2026-04-12 07:39 | -20.97511 | 141.73215 | 35077 ft | 494 kts | 123° |
| 2026-04-12 07:40 | -21.01399 | 141.79304 | 35077 ft | 495 kts | 123° |
| 2026-04-12 07:40 | -21.05283 | 141.85392 | 35077 ft | 495 kts | 123° |
| 2026-04-12 07:41 | -21.09164 | 141.91483 | 35080 ft | 495 kts | 123° |
| 2026-04-12 07:41 | -21.13050 | 141.97587 | 35081 ft | 496 kts | 123° |
| 2026-04-12 07:42 | -21.16927 | 142.03685 | 35079 ft | 496 kts | 123° |
| 2026-04-12 07:43 | -21.24686 | 142.15906 | 35077 ft | 497 kts | 123° |
| 2026-04-12 07:43 | -21.28575 | 142.22043 | 35080 ft | 498 kts | 123° |
| 2026-04-12 07:44 | -21.32464 | 142.28186 | 35084 ft | 498 kts | 123° |
| 2026-04-12 07:44 | -21.36354 | 142.34337 | 35084 ft | 498 kts | 123° |
| 2026-04-12 07:45 | -21.40244 | 142.40494 | 35085 ft | 498 kts | 123° |
| 2026-04-12 07:45 | -21.44126 | 142.46647 | 35082 ft | 499 kts | 123° |
| 2026-04-12 07:46 | -21.48022 | 142.52829 | 35086 ft | 499 kts | 123° |
| 2026-04-12 07:46 | -21.51913 | 142.59009 | 35085 ft | 499 kts | 123° |
| 2026-04-12 07:47 | -21.55799 | 142.65188 | 35085 ft | 499 kts | 123° |
| 2026-04-12 07:47 | -21.59680 | 142.71367 | 35085 ft | 499 kts | 123° |
| 2026-04-12 07:48 | -21.63563 | 142.77555 | 35084 ft | 499 kts | 123° |
| 2026-04-12 07:48 | -21.67420 | 142.83709 | 35081 ft | 499 kts | 123° |
| 2026-04-12 07:49 | -21.71304 | 142.89912 | 35082 ft | 500 kts | 123° |
| 2026-04-12 07:49 | -21.75184 | 142.96118 | 35083 ft | 500 kts | 123° |
| 2026-04-12 07:50 | -21.78996 | 143.02220 | 35082 ft | 500 kts | 123° |
| 2026-04-12 07:50 | -21.82877 | 143.08440 | 35079 ft | 500 kts | 123° |
| 2026-04-12 07:51 | -21.86756 | 143.14665 | 35081 ft | 500 kts | 123° |
| 2026-04-12 07:51 | -21.90609 | 143.20854 | 35084 ft | 501 kts | 123° |
| 2026-04-12 07:52 | -21.94484 | 143.27085 | 35080 ft | 501 kts | 123° |
| 2026-04-12 07:52 | -21.98364 | 143.33330 | 35085 ft | 501 kts | 123° |
| 2026-04-12 07:53 | -22.02236 | 143.39580 | 35083 ft | 502 kts | 123° |
| 2026-04-12 07:53 | -22.06114 | 143.45841 | 35084 ft | 502 kts | 123° |
| 2026-04-12 07:54 | -22.09994 | 143.52108 | 35089 ft | 502 kts | 123° |
| 2026-04-12 07:54 | -22.13873 | 143.58382 | 35092 ft | 503 kts | 123° |
| 2026-04-12 07:55 | -22.17752 | 143.64665 | 35090 ft | 503 kts | 123° |
| 2026-04-12 07:55 | -22.21629 | 143.70952 | 35088 ft | 503 kts | 123° |
| 2026-04-12 07:56 | -22.25483 | 143.77211 | 35093 ft | 504 kts | 123° |
| 2026-04-12 07:56 | -22.29361 | 143.83514 | 35094 ft | 504 kts | 123° |
| 2026-04-12 07:57 | -22.33239 | 143.89825 | 35091 ft | 504 kts | 123° |
| 2026-04-12 07:57 | -22.37117 | 143.96144 | 35090 ft | 504 kts | 123° |
| 2026-04-12 07:58 | -22.40987 | 144.02457 | 35090 ft | 504 kts | 123° |
| 2026-04-12 07:58 | -22.44861 | 144.08784 | 35088 ft | 505 kts | 123° |
| 2026-04-12 07:59 | -22.48737 | 144.15123 | 35088 ft | 505 kts | 123° |
| 2026-04-12 07:59 | -22.52608 | 144.21461 | 35085 ft | 505 kts | 123° |
| 2026-04-12 08:00 | -22.56482 | 144.27811 | 35086 ft | 505 kts | 123° |
| 2026-04-12 08:00 | -22.60351 | 144.34161 | 35081 ft | 506 kts | 123° |
| 2026-04-12 08:01 | -22.64209 | 144.40500 | 35089 ft | 506 kts | 123° |
| 2026-04-12 08:01 | -22.68075 | 144.46859 | 35086 ft | 506 kts | 124° |
| 2026-04-12 08:02 | -22.71945 | 144.53233 | 35082 ft | 506 kts | 123° |
| 2026-04-12 08:02 | -22.75805 | 144.59599 | 35079 ft | 506 kts | 123° |
| 2026-04-12 08:03 | -22.79671 | 144.65982 | 35080 ft | 507 kts | 124° |
| 2026-04-12 08:03 | -22.83541 | 144.72381 | 35080 ft | 507 kts | 124° |
| 2026-04-12 08:04 | -22.87409 | 144.78782 | 35086 ft | 507 kts | 124° |
| 2026-04-12 08:04 | -22.91272 | 144.85185 | 35084 ft | 508 kts | 124° |
| 2026-04-12 08:05 | -22.95139 | 144.91600 | 35082 ft | 508 kts | 124° |
| 2026-04-12 08:05 | -22.98976 | 144.97976 | 35080 ft | 508 kts | 124° |
| 2026-04-12 08:06 | -23.02843 | 145.04406 | 35080 ft | 509 kts | 124° |
| 2026-04-12 08:06 | -23.06708 | 145.10845 | 35081 ft | 509 kts | 124° |
| 2026-04-12 08:07 | -23.10576 | 145.17293 | 35081 ft | 509 kts | 124° |
| 2026-04-12 08:07 | -23.14439 | 145.23743 | 35083 ft | 510 kts | 124° |
| 2026-04-12 08:08 | -23.18303 | 145.30204 | 35085 ft | 510 kts | 124° |
| 2026-04-12 08:08 | -23.22168 | 145.36672 | 35087 ft | 510 kts | 124° |
| 2026-04-12 08:09 | -23.26036 | 145.43154 | 35088 ft | 511 kts | 124° |
| 2026-04-12 08:09 | -23.29902 | 145.49642 | 35090 ft | 511 kts | 124° |
| 2026-04-12 08:10 | -23.33767 | 145.56136 | 35093 ft | 512 kts | 124° |
| 2026-04-12 08:10 | -23.37635 | 145.62644 | 35092 ft | 512 kts | 124° |
| 2026-04-12 08:11 | -23.41501 | 145.69156 | 35094 ft | 512 kts | 124° |
| 2026-04-12 08:11 | -23.45368 | 145.75678 | 35093 ft | 513 kts | 124° |
| 2026-04-12 08:12 | -23.49237 | 145.82213 | 35095 ft | 513 kts | 124° |
| 2026-04-12 08:12 | -23.53100 | 145.88744 | 35090 ft | 513 kts | 124° |
| 2026-04-12 08:13 | -23.56941 | 145.95249 | 35094 ft | 514 kts | 124° |
| 2026-04-12 08:13 | -23.60813 | 146.01811 | 35092 ft | 514 kts | 124° |
| 2026-04-12 08:14 | -23.64681 | 146.08372 | 35095 ft | 514 kts | 124° |
| 2026-04-12 08:14 | -23.68539 | 146.14953 | 35094 ft | 515 kts | 124° |
| 2026-04-12 08:15 | -23.72402 | 146.21542 | 35094 ft | 515 kts | 124° |
| 2026-04-12 08:15 | -23.76267 | 146.28132 | 35097 ft | 516 kts | 124° |
| 2026-04-12 08:16 | -23.80135 | 146.34738 | 35102 ft | 516 kts | 124° |
| 2026-04-12 08:16 | -23.83975 | 146.41307 | 35102 ft | 516 kts | 124° |
| 2026-04-12 08:17 | -23.87839 | 146.47928 | 35103 ft | 517 kts | 124° |
| 2026-04-12 08:17 | -23.91707 | 146.54563 | 35101 ft | 517 kts | 124° |
| 2026-04-12 08:18 | -23.94916 | 146.60075 | 35101 ft | 517 kts | 124° |
| 2026-04-12 08:18 | -23.98783 | 146.66726 | 35099 ft | 518 kts | 124° |
| 2026-04-12 08:19 | -24.02647 | 146.73380 | 35102 ft | 518 kts | 124° |
| 2026-04-12 08:19 | -24.06512 | 146.80044 | 35086 ft | 518 kts | 124° |
| 2026-04-12 08:20 | -24.10375 | 146.86715 | 35094 ft | 519 kts | 124° |
| 2026-04-12 08:20 | -24.14241 | 146.93400 | 35110 ft | 519 kts | 124° |
| 2026-04-12 08:21 | -24.18103 | 147.00086 | 35116 ft | 520 kts | 124° |
| 2026-04-12 08:21 | -24.21966 | 147.06784 | 35094 ft | 519 kts | 124° |
| 2026-04-12 08:22 | -24.23893 | 147.10128 | 34892 ft | 518 kts | 124° |
| 2026-04-12 08:22 | -24.25821 | 147.13477 | 34493 ft | 519 kts | 124° |
| 2026-04-12 08:22 | -24.27722 | 147.16779 | 34081 ft | 521 kts | 124° |
| 2026-04-12 08:22 | -24.29657 | 147.20144 | 33520 ft | 522 kts | 124° |
| 2026-04-12 08:23 | -24.31587 | 147.23506 | 33040 ft | 522 kts | 124° |
| 2026-04-12 08:23 | -24.33522 | 147.26881 | 32537 ft | 521 kts | 124° |
| 2026-04-12 08:23 | -24.35455 | 147.30252 | 32024 ft | 521 kts | 125° |
| 2026-04-12 08:23 | -24.37391 | 147.33630 | 31325 ft | 525 kts | 126° |
| 2026-04-12 08:24 | -24.39360 | 147.37063 | 30640 ft | 544 kts | 126° |
| 2026-04-12 08:24 | -24.41420 | 147.40650 | 29953 ft | 566 kts | 126° |
| 2026-04-12 08:24 | -24.43547 | 147.44360 | 29248 ft | 578 kts | 126° |
| 2026-04-12 08:24 | -24.45677 | 147.48089 | 28997 ft | 576 kts | 126° |
| 2026-04-12 08:25 | -24.47800 | 147.51812 | 28734 ft | 574 kts | 126° |
| 2026-04-12 08:25 | -24.49917 | 147.55526 | 28556 ft | 572 kts | 126° |
| 2026-04-12 08:25 | -24.52027 | 147.59227 | 28392 ft | 571 kts | 126° |
| 2026-04-12 08:25 | -24.54127 | 147.62914 | 28247 ft | 570 kts | 126° |
| 2026-04-12 08:26 | -24.56223 | 147.66593 | 28135 ft | 569 kts | 126° |
| 2026-04-12 08:26 | -24.58325 | 147.70285 | 28045 ft | 568 kts | 126° |
| 2026-04-12 08:26 | -24.62498 | 147.77626 | 28004 ft | 568 kts | 126° |
| 2026-04-12 08:27 | -24.66687 | 147.85007 | 28015 ft | 568 kts | 126° |
| 2026-04-12 08:27 | -24.70863 | 147.92373 | 28014 ft | 568 kts | 126° |
| 2026-04-12 08:28 | -24.75034 | 147.99745 | 28022 ft | 567 kts | 126° |
| 2026-04-12 08:28 | -24.79195 | 148.07109 | 27816 ft | 563 kts | 126° |
| 2026-04-12 08:29 | -24.81255 | 148.10759 | 27292 ft | 559 kts | 126° |
| 2026-04-12 08:29 | -24.83294 | 148.14377 | 26669 ft | 553 kts | 126° |
| 2026-04-12 08:29 | -24.85312 | 148.17959 | 26128 ft | 547 kts | 126° |
| 2026-04-12 08:29 | -24.87274 | 148.21446 | 25531 ft | 541 kts | 125° |
| 2026-04-12 08:30 | -24.89238 | 148.24937 | 25297 ft | 529 kts | 125° |
| 2026-04-12 08:30 | -24.91186 | 148.28399 | 25183 ft | 535 kts | 125° |
| 2026-04-12 08:30 | -24.93152 | 148.31894 | 25368 ft | 538 kts | 125° |
| 2026-04-12 08:30 | -24.95128 | 148.35411 | 25598 ft | 541 kts | 125° |
| 2026-04-12 08:31 | -24.97110 | 148.38943 | 25818 ft | 543 kts | 125° |
| 2026-04-12 08:31 | -24.99107 | 148.42502 | 26036 ft | 546 kts | 125° |
| 2026-04-12 08:31 | -25.01107 | 148.46072 | 26257 ft | 548 kts | 125° |
| 2026-04-12 08:31 | -25.03109 | 148.49649 | 26298 ft | 548 kts | 125° |
| 2026-04-12 08:32 | -25.05101 | 148.53213 | 26019 ft | 544 kts | 125° |
| 2026-04-12 08:32 | -25.07076 | 148.56748 | 25565 ft | 539 kts | 125° |
| 2026-04-12 08:32 | -25.09032 | 148.60251 | 25208 ft | 532 kts | 125° |
| 2026-04-12 08:32 | -25.10966 | 148.63717 | 25071 ft | 532 kts | 125° |
| 2026-04-12 08:33 | -25.12913 | 148.67204 | 25067 ft | 534 kts | 125° |
| 2026-04-12 08:33 | -25.14857 | 148.70690 | 25116 ft | 534 kts | 125° |
| 2026-04-12 08:33 | -25.16789 | 148.74159 | 25162 ft | 535 kts | 125° |
| 2026-04-12 08:33 | -25.18753 | 148.77688 | 25205 ft | 536 kts | 125° |
| 2026-04-12 08:34 | -25.20703 | 148.81195 | 25216 ft | 535 kts | 125° |
| 2026-04-12 08:34 | -25.22619 | 148.84645 | 25060 ft | 533 kts | 125° |
| 2026-04-12 08:34 | -25.24583 | 148.88182 | 25004 ft | 534 kts | 125° |
| 2026-04-12 08:34 | -25.26524 | 148.91678 | 25007 ft | 534 kts | 125° |
| 2026-04-12 08:35 | -25.28442 | 148.95135 | 25012 ft | 534 kts | 125° |
| 2026-04-12 08:35 | -25.30381 | 148.98635 | 25010 ft | 535 kts | 125° |
| 2026-04-12 08:35 | -25.32327 | 149.02147 | 25013 ft | 534 kts | 125° |
| 2026-04-12 08:35 | -25.34265 | 149.05650 | 25013 ft | 535 kts | 125° |
| 2026-04-12 08:36 | -25.36208 | 149.09165 | 25013 ft | 536 kts | 125° |
| 2026-04-12 08:36 | -25.38153 | 149.12686 | 25011 ft | 535 kts | 125° |
| 2026-04-12 08:36 | -25.40091 | 149.16198 | 25013 ft | 536 kts | 125° |
| 2026-04-12 08:36 | -25.42035 | 149.19723 | 25010 ft | 536 kts | 125° |
| 2026-04-12 08:37 | -25.43977 | 149.23247 | 25012 ft | 536 kts | 125° |
| 2026-04-12 08:37 | -25.45917 | 149.26771 | 25009 ft | 536 kts | 125° |
| 2026-04-12 08:37 | -25.47856 | 149.30294 | 25010 ft | 537 kts | 125° |
| 2026-04-12 08:37 | -25.49784 | 149.33801 | 25011 ft | 537 kts | 125° |
| 2026-04-12 08:38 | -25.51740 | 149.37361 | 25006 ft | 537 kts | 125° |
| 2026-04-12 08:38 | -25.53682 | 149.40895 | 25007 ft | 538 kts | 125° |
| 2026-04-12 08:38 | -25.55622 | 149.44431 | 25002 ft | 538 kts | 125° |
| 2026-04-12 08:38 | -25.57566 | 149.47975 | 25004 ft | 538 kts | 125° |
| 2026-04-12 08:39 | -25.59507 | 149.51520 | 25004 ft | 538 kts | 125° |
| 2026-04-12 08:39 | -25.61450 | 149.55072 | 25003 ft | 538 kts | 125° |
| 2026-04-12 08:39 | -25.63390 | 149.58620 | 25000 ft | 538 kts | 125° |
| 2026-04-12 08:39 | -25.65331 | 149.62171 | 25001 ft | 538 kts | 125° |
| 2026-04-12 08:40 | -25.67266 | 149.65716 | 25003 ft | 539 kts | 125° |
| 2026-04-12 08:40 | -25.69215 | 149.69287 | 25000 ft | 539 kts | 125° |
| 2026-04-12 08:40 | -25.71126 | 149.72794 | 25003 ft | 539 kts | 125° |
| 2026-04-12 08:40 | -25.73069 | 149.76359 | 24998 ft | 539 kts | 125° |
| 2026-04-12 08:41 | -25.75002 | 149.79908 | 25001 ft | 539 kts | 125° |
| 2026-04-12 08:41 | -25.76942 | 149.83471 | 24999 ft | 539 kts | 125° |
| 2026-04-12 08:41 | -25.78886 | 149.87043 | 24995 ft | 539 kts | 125° |
| 2026-04-12 08:41 | -25.80823 | 149.90601 | 24999 ft | 539 kts | 125° |
| 2026-04-12 08:42 | -25.82849 | 149.94084 | 24788 ft | 534 kts | 128° |
| 2026-04-12 08:42 | -25.84936 | 149.97470 | 24333 ft | 530 kts | 128° |
| 2026-04-12 08:42 | -25.87023 | 150.00822 | 23879 ft | 525 kts | 128° |
| 2026-04-12 08:42 | -25.89078 | 150.04144 | 23298 ft | 519 kts | 128° |
| 2026-04-12 08:43 | -25.91097 | 150.07440 | 22650 ft | 513 kts | 128° |
| 2026-04-12 08:43 | -25.93086 | 150.10705 | 22020 ft | 507 kts | 128° |
| 2026-04-12 08:43 | -25.95050 | 150.13943 | 21382 ft | 502 kts | 128° |
| 2026-04-12 08:43 | -25.96986 | 150.17140 | 20762 ft | 496 kts | 127° |
| 2026-04-12 08:44 | -25.98900 | 150.20305 | 20155 ft | 491 kts | 127° |
| 2026-04-12 08:44 | -26.00799 | 150.23446 | 19551 ft | 486 kts | 127° |
| 2026-04-12 08:44 | -26.02647 | 150.26504 | 18942 ft | 481 kts | 127° |
| 2026-04-12 08:44 | -26.04502 | 150.29575 | 18362 ft | 475 kts | 127° |
| 2026-04-12 08:45 | -26.06330 | 150.32605 | 17713 ft | 470 kts | 127° |
| 2026-04-12 08:45 | -26.08136 | 150.35600 | 17188 ft | 461 kts | 127° |
| 2026-04-12 08:45 | -26.09915 | 150.38552 | 17024 ft | 459 kts | 127° |
| 2026-04-12 08:45 | -26.11702 | 150.41513 | 16991 ft | 463 kts | 127° |
| 2026-04-12 08:46 | -26.13493 | 150.44484 | 16996 ft | 462 kts | 127° |
| 2026-04-12 08:46 | -26.15277 | 150.47449 | 16994 ft | 462 kts | 127° |
| 2026-04-12 08:46 | -26.18865 | 150.53418 | 16992 ft | 462 kts | 127° |
| 2026-04-12 08:47 | -26.20651 | 150.56394 | 16996 ft | 462 kts | 127° |
| 2026-04-12 08:47 | -26.22432 | 150.59362 | 16995 ft | 462 kts | 127° |
| 2026-04-12 08:47 | -26.24220 | 150.62345 | 16995 ft | 462 kts | 127° |
| 2026-04-12 08:47 | -26.26006 | 150.65324 | 16994 ft | 463 kts | 127° |
| 2026-04-12 08:48 | -26.27793 | 150.68308 | 16993 ft | 463 kts | 127° |
| 2026-04-12 08:48 | -26.29580 | 150.71293 | 16993 ft | 463 kts | 127° |
| 2026-04-12 08:48 | -26.31369 | 150.74285 | 16992 ft | 463 kts | 127° |
| 2026-04-12 08:48 | -26.33156 | 150.77275 | 16991 ft | 464 kts | 127° |
| 2026-04-12 08:49 | -26.34942 | 150.80264 | 16991 ft | 464 kts | 127° |
| 2026-04-12 08:49 | -26.36729 | 150.83259 | 16997 ft | 463 kts | 127° |
| 2026-04-12 08:49 | -26.38513 | 150.86248 | 16991 ft | 463 kts | 127° |
| 2026-04-12 08:49 | -26.40300 | 150.89247 | 16990 ft | 464 kts | 127° |
| 2026-04-12 08:50 | -26.42085 | 150.92244 | 16990 ft | 464 kts | 127° |
| 2026-04-12 08:50 | -26.43868 | 150.95238 | 16993 ft | 464 kts | 127° |
| 2026-04-12 08:50 | -26.45651 | 150.98235 | 16994 ft | 463 kts | 127° |
| 2026-04-12 08:50 | -26.47409 | 151.01192 | 16990 ft | 463 kts | 127° |
| 2026-04-12 08:51 | -26.49217 | 151.04234 | 16988 ft | 464 kts | 127° |
| 2026-04-12 08:51 | -26.50998 | 151.07234 | 16988 ft | 464 kts | 127° |
| 2026-04-12 08:51 | -26.52758 | 151.10198 | 16986 ft | 464 kts | 127° |
| 2026-04-12 08:51 | -26.54537 | 151.13199 | 16993 ft | 464 kts | 127° |
| 2026-04-12 08:52 | -26.56321 | 151.16210 | 16990 ft | 464 kts | 127° |
| 2026-04-12 08:52 | -26.58097 | 151.19209 | 16991 ft | 464 kts | 127° |
| 2026-04-12 08:52 | -26.59883 | 151.22221 | 16990 ft | 464 kts | 127° |
| 2026-04-12 08:52 | -26.61671 | 151.25223 | 16996 ft | 464 kts | 127° |
| 2026-04-12 08:53 | -26.63458 | 151.28228 | 16993 ft | 464 kts | 127° |
| 2026-04-12 08:53 | -26.65242 | 151.31238 | 16993 ft | 464 kts | 127° |
| 2026-04-12 08:53 | -26.67028 | 151.34249 | 16993 ft | 465 kts | 127° |
| 2026-04-12 08:53 | -26.68816 | 151.37261 | 16993 ft | 464 kts | 127° |
| 2026-04-12 08:54 | -26.70600 | 151.40271 | 16991 ft | 465 kts | 127° |
| 2026-04-12 08:54 | -26.72380 | 151.43286 | 16991 ft | 465 kts | 127° |
| 2026-04-12 08:54 | -26.74160 | 151.46309 | 16997 ft | 464 kts | 127° |
| 2026-04-12 08:54 | -26.75935 | 151.49327 | 16989 ft | 464 kts | 127° |
| 2026-04-12 08:55 | -26.77707 | 151.52345 | 16991 ft | 464 kts | 127° |
| 2026-04-12 08:55 | -26.79484 | 151.55373 | 16987 ft | 464 kts | 127° |
| 2026-04-12 08:55 | -26.81253 | 151.58388 | 16992 ft | 464 kts | 127° |
| 2026-04-12 08:55 | -26.83028 | 151.61414 | 16990 ft | 465 kts | 127° |
| 2026-04-12 08:56 | -26.84799 | 151.64439 | 16989 ft | 464 kts | 127° |
| 2026-04-12 08:56 | -26.86572 | 151.67469 | 16991 ft | 465 kts | 127° |
| 2026-04-12 08:56 | -26.88342 | 151.70495 | 16989 ft | 465 kts | 127° |
| 2026-04-12 08:56 | -26.90119 | 151.73533 | 16963 ft | 463 kts | 127° |
| 2026-04-12 08:57 | -26.91875 | 151.76542 | 16611 ft | 461 kts | 127° |
| 2026-04-12 08:57 | -26.93623 | 151.79538 | 16305 ft | 458 kts | 127° |
| 2026-04-12 08:57 | -26.95357 | 151.82512 | 15980 ft | 455 kts | 127° |
| 2026-04-12 08:57 | -26.97080 | 151.85467 | 15691 ft | 451 kts | 127° |
| 2026-04-12 08:58 | -26.98787 | 151.88397 | 15402 ft | 447 kts | 127° |
| 2026-04-12 08:58 | -27.00482 | 151.91307 | 15097 ft | 443 kts | 127° |
| 2026-04-12 08:58 | -27.02156 | 151.94183 | 14835 ft | 441 kts | 127° |
| 2026-04-12 08:58 | -27.03831 | 151.97064 | 14602 ft | 438 kts | 127° |
| 2026-04-12 08:59 | -27.05482 | 151.99907 | 14232 ft | 433 kts | 126° |
| 2026-04-12 08:59 | -27.07114 | 152.02719 | 13759 ft | 427 kts | 126° |
| 2026-04-12 08:59 | -27.08722 | 152.05490 | 13017 ft | 421 kts | 126° |
| 2026-04-12 08:59 | -27.10309 | 152.08225 | 12273 ft | 416 kts | 126° |
| 2026-04-12 09:00 | -27.11882 | 152.10937 | 11557 ft | 411 kts | 126° |
| 2026-04-12 09:00 | -27.13431 | 152.13612 | 10863 ft | 405 kts | 126° |
| 2026-04-12 09:00 | -27.14938 | 152.16215 | 10186 ft | 400 kts | 126° |
| 2026-04-12 09:00 | -27.16447 | 152.18821 | 9456 ft | 395 kts | 126° |
| 2026-04-12 09:01 | -27.17921 | 152.21370 | 8734 ft | 390 kts | 126° |
| 2026-04-12 09:01 | -27.19398 | 152.23928 | 7994 ft | 385 kts | 126° |
| 2026-04-12 09:01 | -27.20847 | 152.26436 | 7265 ft | 380 kts | 126° |
| 2026-04-12 09:01 | -27.22279 | 152.28914 | 6565 ft | 376 kts | 126° |
| 2026-04-12 09:02 | -27.23691 | 152.31363 | 5860 ft | 371 kts | 126° |
| 2026-04-12 09:02 | -27.25085 | 152.33780 | 5159 ft | 365 kts | 126° |
| 2026-04-12 09:02 | -27.26457 | 152.36159 | 4402 ft | 361 kts | 125° |
| 2026-04-12 09:02 | -27.27801 | 152.38496 | 3838 ft | 347 kts | 126° |
| 2026-04-12 09:03 | -27.28626 | 152.39942 | 3593 ft | 312 kts | 126° |
| 2026-04-12 09:03 | -27.29692 | 152.41822 | 3173 ft | 262 kts | 127° |
| 2026-04-12 09:03 | -27.30874 | 152.43894 | 2979 ft | 214 kts | 128° |
| 2026-04-12 09:03 | -27.31420 | 152.44831 | 2986 ft | 216 kts | 128° |
| 2026-04-12 09:04 | -27.32238 | 152.46229 | 2984 ft | 214 kts | 129° |
| 2026-04-12 09:04 | -27.33049 | 152.47632 | 2982 ft | 214 kts | 129° |
| 2026-04-12 09:04 | -27.33860 | 152.49038 | 2981 ft | 215 kts | 129° |
| 2026-04-12 09:04 | -27.34681 | 152.50462 | 3168 ft | 218 kts | 128° |
| 2026-04-12 09:05 | -27.35503 | 152.51885 | 3640 ft | 217 kts | 127° |
| 2026-04-12 09:05 | -27.36325 | 152.53314 | 3946 ft | 219 kts | 127° |
| 2026-04-12 09:05 | -27.37151 | 152.54755 | 3826 ft | 217 kts | 127° |
| 2026-04-12 09:05 | -27.37965 | 152.56183 | 3799 ft | 217 kts | 127° |
| 2026-04-12 09:06 | -27.38751 | 152.57567 | 3748 ft | 202 kts | 127° |
| 2026-04-12 09:06 | -27.39489 | 152.58868 | 3400 ft | 195 kts | 128° |
| 2026-04-12 09:06 | -27.40236 | 152.60130 | 3050 ft | 193 kts | 134° |
| 2026-04-12 09:06 | -27.41208 | 152.61127 | 2972 ft | 188 kts | 153° |
| 2026-04-12 09:07 | -27.42354 | 152.61813 | 2963 ft | 186 kts | 162° |
| 2026-04-12 09:07 | -27.43550 | 152.62361 | 2959 ft | 184 kts | 165° |
| 2026-04-12 09:07 | -27.44746 | 152.62879 | 2958 ft | 185 kts | 165° |
| 2026-04-12 09:07 | -27.45952 | 152.63407 | 2952 ft | 186 kts | 165° |
| 2026-04-12 09:08 | -27.47151 | 152.63934 | 2952 ft | 187 kts | 165° |
| 2026-04-12 09:08 | -27.48366 | 152.64465 | 2912 ft | 187 kts | 164° |
| 2026-04-12 09:08 | -27.49574 | 152.64996 | 2700 ft | 185 kts | 165° |
| 2026-04-12 09:08 | -27.50758 | 152.65514 | 2443 ft | 183 kts | 165° |
| 2026-04-12 09:09 | -27.51945 | 152.66034 | 2209 ft | 183 kts | 165° |
| 2026-04-12 09:09 | -27.53124 | 152.66552 | 1956 ft | 179 kts | 165° |
| 2026-04-12 09:09 | -27.54279 | 152.67056 | 1750 ft | 182 kts | 165° |
| 2026-04-12 09:09 | -27.55471 | 152.67580 | 1499 ft | 181 kts | 164° |
| 2026-04-12 09:10 | -27.56632 | 152.68087 | 1274 ft | 182 kts | 163° |
| 2026-04-12 09:10 | -27.57825 | 152.68611 | 1035 ft | 186 kts | 162° |
| 2026-04-12 09:10 | -27.59018 | 152.69136 | 794 ft | 186 kts | 162° |
| 2026-04-12 09:10 | -27.60254 | 152.69679 | 544 ft | 186 kts | 161° |
| 2026-04-12 09:11 | -27.61449 | 152.70204 | 310 ft | 187 kts | 162° |
| 2026-04-12 09:11 | -27.62656 | 152.70732 | 102 ft | 181 kts | 160° |
| 2026-04-12 09:11 | -27.63509 | 152.71102 | 103 ft | 67 kts | 160° |
| 2026-04-12 09:11 | -27.63701 | 152.71177 | 106 ft | 21 kts | 158° |
| 2026-04-12 09:12 | -27.63736 | 152.71193 | 105 ft | 1 kts | 156° |
| 2026-04-12 09:12 | -27.63755 | 152.71202 | 105 ft | 5 kts | 156° |
| 2026-04-12 09:12 | -27.63800 | 152.71224 | 105 ft | 9 kts | 156° |
| 2026-04-12 09:12 | -27.63872 | 152.71259 | 105 ft | 14 kts | 157° |
| 2026-04-12 09:13 | -27.63986 | 152.71311 | 105 ft | 21 kts | 159° |
| 2026-04-12 09:13 | -27.64125 | 152.71320 | 106 ft | 18 kts | 221° |
| 2026-04-12 09:13 | -27.64175 | 152.71200 | 106 ft | 6 kts | 281° |
| 2026-04-12 09:13 | -27.64169 | 152.71195 | 106 ft | 2 kts | 304° |
| 2026-04-12 09:14 | -27.64116 | 152.71162 | 105 ft | 15 kts | 336° |
| 2026-04-12 09:14 | -27.64004 | 152.71111 | 106 ft | 19 kts | 337° |
| 2026-04-12 09:14 | -27.63870 | 152.71050 | 104 ft | 22 kts | 339° |
| 2026-04-12 09:14 | -27.63714 | 152.70984 | 105 ft | 25 kts | 340° |
| 2026-04-12 09:15 | -27.63541 | 152.70910 | 103 ft | 28 kts | 337° |
| 2026-04-12 09:15 | -27.63353 | 152.70827 | 103 ft | 30 kts | 338° |
| 2026-04-12 09:15 | -27.63151 | 152.70742 | 102 ft | 32 kts | 338° |
| 2026-04-12 09:15 | -27.62942 | 152.70649 | 102 ft | 33 kts | 338° |
| 2026-04-12 09:16 | -27.62727 | 152.70553 | 102 ft | 33 kts | 339° |
| 2026-04-12 09:16 | -27.62579 | 152.70484 | 103 ft | 0 kts | 330° |
| 2026-04-12 09:16 | -27.62562 | 152.70459 | 102 ft | 7 kts | 300° |
| 2026-04-12 09:16 | -27.62533 | 152.70393 | 102 ft | 10 kts | 312° |
| 2026-04-12 09:17 | -27.62498 | 152.70370 | 101 ft | 0 kts | 335° |
| 2026-04-12 09:17 | -27.62497 | 152.70370 | 101 ft | 0 kts | 336° |
| 2026-04-12 09:17 | -27.62494 | 152.70369 | 101 ft | 0 kts | 336° |